KPNS

Pensacola International Airport

Airport
ICAO code
KPNS
Summary
ICAO Region
NAM
ICAO Territory
Location

Pensacola, Florida,

Coordinates
30° 28' 20" N , 87° 11' 17" W
KCC
Metar
KPNS 190509Z AUTO 20007KT 10SM SCT008 BKN014 22/20 A3003 RMK AO2 T02220200

Description

Pensacola International Airport, formerly known as Pensacola Gulf Coast Regional Airport, is a public airport located 4.83 km northeast of the city of Pensacola in Escambia County, Florida.

Climatology

Humid “subtropical” climate (Köppen climate classification Cfa) - characterized by hot, humid summers and cool winters. Significant amounts of precipitation occur in all seasons in most areas. Winter rainfall (and sometimes snowfall) is associated with large storms that the westerlies steer from west to east. Most summer rainfall occurs during thunderstorms and occasional tropical storms (hurricanes).

Runways

Designator Length Width Surface Rops
8/26 2134 46 ASP Yes/Yes
17/35 2135 46 ASP Yes/Yes

Airport map

Aerial View

SKYbrary Partners:

Safety knowledge contributed by: